sensor_id;sensor_type;location;lat;lon;timestamp;P1;durP1;ratioP1;P2;durP2;ratioP2
77287;SDS011;66345;42.694;23.346;2023-06-14T00:01:34;9.13;;;4.55;;
77287;SDS011;66345;42.694;23.346;2023-06-14T00:04:00;8.47;;;4.27;;
77287;SDS011;66345;42.694;23.346;2023-06-14T00:06:26;7.78;;;4.47;;
77287;SDS011;66345;42.694;23.346;2023-06-14T00:08:53;8.80;;;4.97;;
77287;SDS011;66345;42.694;23.346;2023-06-14T00:11:19;9.20;;;4.10;;
77287;SDS011;66345;42.694;23.346;2023-06-14T00:13:45;7.82;;;3.95;;
77287;SDS011;66345;42.694;23.346;2023-06-14T00:16:11;8.40;;;4.38;;
77287;SDS011;66345;42.694;23.346;2023-06-14T00:18:36;9.33;;;4.27;;
77287;SDS011;66345;42.694;23.346;2023-06-14T00:21:03;10.50;;;4.43;;
77287;SDS011;66345;42.694;23.346;2023-06-14T00:23:29;9.67;;;4.47;;
77287;SDS011;66345;42.694;23.346;2023-06-14T00:25:54;9.55;;;4.47;;
77287;SDS011;66345;42.694;23.346;2023-06-14T00:28:20;10.00;;;4.40;;
77287;SDS011;66345;42.694;23.346;2023-06-14T00:30:45;10.88;;;4.50;;
77287;SDS011;66345;42.694;23.346;2023-06-14T00:33:12;7.67;;;4.10;;
77287;SDS011;66345;42.694;23.346;2023-06-14T00:35:37;9.48;;;4.38;;
77287;SDS011;66345;42.694;23.346;2023-06-14T00:38:03;8.03;;;3.90;;
77287;SDS011;66345;42.694;23.346;2023-06-14T00:40:29;7.72;;;4.10;;
77287;SDS011;66345;42.694;23.346;2023-06-14T00:42:55;7.27;;;4.00;;
77287;SDS011;66345;42.694;23.346;2023-06-14T00:45:20;8.27;;;4.22;;
77287;SDS011;66345;42.694;23.346;2023-06-14T00:47:46;12.63;;;4.57;;
77287;SDS011;66345;42.694;23.346;2023-06-14T00:50:12;7.57;;;3.95;;
77287;SDS011;66345;42.694;23.346;2023-06-14T00:52:38;9.70;;;4.50;;
77287;SDS011;66345;42.694;23.346;2023-06-14T00:55:04;7.63;;;4.20;;
77287;SDS011;66345;42.694;23.346;2023-06-14T00:57:31;9.10;;;4.07;;
77287;SDS011;66345;42.694;23.346;2023-06-14T00:59:56;6.95;;;3.58;;
77287;SDS011;66345;42.694;23.346;2023-06-14T01:02:22;6.73;;;3.40;;
77287;SDS011;66345;42.694;23.346;2023-06-14T01:04:49;7.68;;;4.25;;
77287;SDS011;66345;42.694;23.346;2023-06-14T01:15:54;7.25;;;4.30;;
77287;SDS011;66345;42.694;23.346;2023-06-14T01:18:21;8.05;;;4.03;;
77287;SDS011;66345;42.694;23.346;2023-06-14T01:20:49;7.85;;;4.45;;
77287;SDS011;66345;42.694;23.346;2023-06-14T01:23:16;8.20;;;4.40;;
77287;SDS011;66345;42.694;23.346;2023-06-14T01:25:42;7.97;;;4.65;;
77287;SDS011;66345;42.694;23.346;2023-06-14T01:28:09;8.40;;;4.40;;
77287;SDS011;66345;42.694;23.346;2023-06-14T01:30:39;9.43;;;4.65;;
77287;SDS011;66345;42.694;23.346;2023-06-14T01:33:11;8.88;;;5.05;;
77287;SDS011;66345;42.694;23.346;2023-06-14T01:35:38;7.90;;;4.50;;
77287;SDS011;66345;42.694;23.346;2023-06-14T01:38:06;10.88;;;4.97;;
77287;SDS011;66345;42.694;23.346;2023-06-14T01:40:33;8.85;;;4.72;;
77287;SDS011;66345;42.694;23.346;2023-06-14T01:42:59;9.43;;;4.75;;
77287;SDS011;66345;42.694;23.346;2023-06-14T01:45:27;9.90;;;4.25;;
77287;SDS011;66345;42.694;23.346;2023-06-14T01:47:53;8.07;;;4.93;;
77287;SDS011;66345;42.694;23.346;2023-06-14T01:50:20;8.25;;;4.63;;
77287;SDS011;66345;42.694;23.346;2023-06-14T01:52:45;10.02;;;5.10;;
77287;SDS011;66345;42.694;23.346;2023-06-14T01:55:11;8.63;;;5.00;;
77287;SDS011;66345;42.694;23.346;2023-06-14T01:57:36;9.03;;;4.40;;
77287;SDS011;66345;42.694;23.346;2023-06-14T02:00:02;7.63;;;4.72;;
77287;SDS011;66345;42.694;23.346;2023-06-14T02:02:29;9.10;;;4.82;;
77287;SDS011;66345;42.694;23.346;2023-06-14T02:04:54;8.57;;;4.68;;
77287;SDS011;66345;42.694;23.346;2023-06-14T02:07:22;9.83;;;4.60;;
77287;SDS011;66345;42.694;23.346;2023-06-14T02:09:47;8.00;;;4.40;;
77287;SDS011;66345;42.694;23.346;2023-06-14T02:12:13;7.43;;;4.80;;
77287;SDS011;66345;42.694;23.346;2023-06-14T02:14:38;8.40;;;4.63;;
77287;SDS011;66345;42.694;23.346;2023-06-14T02:17:04;8.52;;;4.70;;
77287;SDS011;66345;42.694;23.346;2023-06-14T02:19:31;8.02;;;4.78;;
77287;SDS011;66345;42.694;23.346;2023-06-14T02:21:57;8.30;;;4.83;;
77287;SDS011;66345;42.694;23.346;2023-06-14T02:24:22;9.13;;;4.90;;
77287;SDS011;66345;42.694;23.346;2023-06-14T02:26:48;8.55;;;4.70;;
77287;SDS011;66345;42.694;23.346;2023-06-14T02:29:14;9.60;;;4.78;;
77287;SDS011;66345;42.694;23.346;2023-06-14T02:31:41;8.17;;;4.77;;
77287;SDS011;66345;42.694;23.346;2023-06-14T02:34:06;10.05;;;4.45;;
77287;SDS011;66345;42.694;23.346;2023-06-14T02:36:35;10.00;;;5.15;;
77287;SDS011;66345;42.694;23.346;2023-06-14T02:39:06;11.07;;;5.22;;
77287;SDS011;66345;42.694;23.346;2023-06-14T02:41:32;9.82;;;5.40;;
77287;SDS011;66345;42.694;23.346;2023-06-14T02:43:57;10.77;;;4.97;;
77287;SDS011;66345;42.694;23.346;2023-06-14T02:46:23;7.82;;;4.18;;
77287;SDS011;66345;42.694;23.346;2023-06-14T02:48:49;9.13;;;4.80;;
77287;SDS011;66345;42.694;23.346;2023-06-14T02:51:14;9.30;;;5.03;;
77287;SDS011;66345;42.694;23.346;2023-06-14T02:53:39;8.73;;;5.23;;
77287;SDS011;66345;42.694;23.346;2023-06-14T02:56:05;9.77;;;5.10;;
77287;SDS011;66345;42.694;23.346;2023-06-14T02:58:31;10.57;;;4.85;;
77287;SDS011;66345;42.694;23.346;2023-06-14T03:00:56;8.73;;;4.70;;
77287;SDS011;66345;42.694;23.346;2023-06-14T03:03:22;10.40;;;5.17;;
77287;SDS011;66345;42.694;23.346;2023-06-14T03:05:50;8.45;;;4.43;;
77287;SDS011;66345;42.694;23.346;2023-06-14T03:08:16;8.15;;;4.70;;
77287;SDS011;66345;42.694;23.346;2023-06-14T03:10:45;10.25;;;5.60;;
77287;SDS011;66345;42.694;23.346;2023-06-14T03:13:11;9.47;;;4.77;;
77287;SDS011;66345;42.694;23.346;2023-06-14T03:15:37;9.90;;;5.00;;
77287;SDS011;66345;42.694;23.346;2023-06-14T03:18:03;8.63;;;4.90;;
77287;SDS011;66345;42.694;23.346;2023-06-14T03:20:29;9.67;;;4.93;;
77287;SDS011;66345;42.694;23.346;2023-06-14T03:22:58;16.08;;;5.68;;
77287;SDS011;66345;42.694;23.346;2023-06-14T03:25:25;10.65;;;5.15;;
77287;SDS011;66345;42.694;23.346;2023-06-14T03:27:54;10.55;;;5.60;;
77287;SDS011;66345;42.694;23.346;2023-06-14T03:30:20;10.73;;;4.97;;
77287;SDS011;66345;42.694;23.346;2023-06-14T03:32:45;16.70;;;6.05;;
77287;SDS011;66345;42.694;23.346;2023-06-14T03:35:11;10.67;;;4.93;;
77287;SDS011;66345;42.694;23.346;2023-06-14T03:37:42;12.75;;;5.43;;
77287;SDS011;66345;42.694;23.346;2023-06-14T03:40:11;10.50;;;5.40;;
77287;SDS011;66345;42.694;23.346;2023-06-14T03:42:37;9.70;;;5.25;;
77287;SDS011;66345;42.694;23.346;2023-06-14T03:45:03;10.17;;;4.60;;
77287;SDS011;66345;42.694;23.346;2023-06-14T03:47:29;11.63;;;5.15;;
77287;SDS011;66345;42.694;23.346;2023-06-14T03:49:54;14.40;;;5.50;;
77287;SDS011;66345;42.694;23.346;2023-06-14T03:52:20;11.13;;;5.10;;
77287;SDS011;66345;42.694;23.346;2023-06-14T03:54:47;11.10;;;5.60;;
77287;SDS011;66345;42.694;23.346;2023-06-14T03:57:12;8.95;;;5.53;;
77287;SDS011;66345;42.694;23.346;2023-06-14T03:59:38;10.97;;;5.37;;
77287;SDS011;66345;42.694;23.346;2023-06-14T04:02:03;9.90;;;5.30;;
77287;SDS011;66345;42.694;23.346;2023-06-14T04:04:29;10.98;;;5.40;;
77287;SDS011;66345;42.694;23.346;2023-06-14T04:06:57;9.30;;;5.23;;
77287;SDS011;66345;42.694;23.346;2023-06-14T04:09:24;9.20;;;4.88;;
77287;SDS011;66345;42.694;23.346;2023-06-14T04:11:50;8.25;;;5.10;;
77287;SDS011;66345;42.694;23.346;2023-06-14T04:14:18;8.27;;;4.95;;
77287;SDS011;66345;42.694;23.346;2023-06-14T04:16:44;8.95;;;4.80;;
77287;SDS011;66345;42.694;23.346;2023-06-14T04:19:11;10.18;;;4.88;;
77287;SDS011;66345;42.694;23.346;2023-06-14T04:21:36;8.23;;;4.80;;
77287;SDS011;66345;42.694;23.346;2023-06-14T04:24:02;14.93;;;5.10;;
77287;SDS011;66345;42.694;23.346;2023-06-14T04:26:28;9.52;;;5.00;;
77287;SDS011;66345;42.694;23.346;2023-06-14T04:28:55;9.57;;;5.00;;
77287;SDS011;66345;42.694;23.346;2023-06-14T04:31:22;7.53;;;4.60;;
77287;SDS011;66345;42.694;23.346;2023-06-14T04:33:50;9.90;;;4.93;;
77287;SDS011;66345;42.694;23.346;2023-06-14T04:36:18;8.97;;;4.70;;
77287;SDS011;66345;42.694;23.346;2023-06-14T04:38:43;9.55;;;5.10;;
77287;SDS011;66345;42.694;23.346;2023-06-14T04:41:10;9.85;;;5.13;;
77287;SDS011;66345;42.694;23.346;2023-06-14T04:43:37;14.18;;;5.18;;
77287;SDS011;66345;42.694;23.346;2023-06-14T04:46:06;8.80;;;4.70;;
77287;SDS011;66345;42.694;23.346;2023-06-14T04:48:36;8.45;;;4.72;;
77287;SDS011;66345;42.694;23.346;2023-06-14T04:51:02;12.43;;;5.53;;
77287;SDS011;66345;42.694;23.346;2023-06-14T04:53:29;7.55;;;5.18;;
77287;SDS011;66345;42.694;23.346;2023-06-14T04:55:54;10.93;;;5.60;;
77287;SDS011;66345;42.694;23.346;2023-06-14T04:58:20;10.07;;;5.65;;
77287;SDS011;66345;42.694;23.346;2023-06-14T05:00:45;7.90;;;4.97;;
77287;SDS011;66345;42.694;23.346;2023-06-14T05:03:10;11.43;;;6.00;;
77287;SDS011;66345;42.694;23.346;2023-06-14T05:05:38;8.52;;;5.32;;
77287;SDS011;66345;42.694;23.346;2023-06-14T05:08:05;8.57;;;5.45;;
77287;SDS011;66345;42.694;23.346;2023-06-14T05:10:31;10.52;;;5.43;;
77287;SDS011;66345;42.694;23.346;2023-06-14T05:12:56;8.90;;;5.57;;
77287;SDS011;66345;42.694;23.346;2023-06-14T05:15:22;11.37;;;5.80;;
77287;SDS011;66345;42.694;23.346;2023-06-14T05:17:50;9.65;;;5.70;;
77287;SDS011;66345;42.694;23.346;2023-06-14T05:20:20;10.15;;;5.30;;
77287;SDS011;66345;42.694;23.346;2023-06-14T05:22:48;10.77;;;6.20;;
77287;SDS011;66345;42.694;23.346;2023-06-14T05:25:16;10.70;;;5.80;;
77287;SDS011;66345;42.694;23.346;2023-06-14T05:27:42;11.82;;;6.38;;
77287;SDS011;66345;42.694;23.346;2023-06-14T05:30:07;11.37;;;6.00;;
77287;SDS011;66345;42.694;23.346;2023-06-14T05:32:33;8.80;;;5.95;;
77287;SDS011;66345;42.694;23.346;2023-06-14T05:34:59;9.97;;;6.37;;
77287;SDS011;66345;42.694;23.346;2023-06-14T05:37:24;10.30;;;6.13;;
77287;SDS011;66345;42.694;23.346;2023-06-14T05:39:50;12.70;;;7.47;;
77287;SDS011;66345;42.694;23.346;2023-06-14T05:42:16;12.13;;;7.17;;
77287;SDS011;66345;42.694;23.346;2023-06-14T05:44:41;11.20;;;6.90;;
77287;SDS011;66345;42.694;23.346;2023-06-14T05:47:06;12.80;;;7.00;;
77287;SDS011;66345;42.694;23.346;2023-06-14T05:49:32;12.95;;;7.00;;
77287;SDS011;66345;42.694;23.346;2023-06-14T05:51:57;12.73;;;7.10;;
77287;SDS011;66345;42.694;23.346;2023-06-14T05:54:23;16.43;;;8.27;;
77287;SDS011;66345;42.694;23.346;2023-06-14T05:56:48;15.83;;;7.63;;
77287;SDS011;66345;42.694;23.346;2023-06-14T05:59:13;15.47;;;8.50;;
77287;SDS011;66345;42.694;23.346;2023-06-14T06:01:39;13.05;;;7.72;;
77287;SDS011;66345;42.694;23.346;2023-06-14T06:04:05;18.70;;;7.87;;
77287;SDS011;66345;42.694;23.346;2023-06-14T06:06:31;17.63;;;9.85;;
77287;SDS011;66345;42.694;23.346;2023-06-14T06:08:57;19.23;;;9.90;;
77287;SDS011;66345;42.694;23.346;2023-06-14T06:11:23;16.08;;;9.38;;
77287;SDS011;66345;42.694;23.346;2023-06-14T06:13:49;15.07;;;8.60;;
77287;SDS011;66345;42.694;23.346;2023-06-14T06:16:14;18.23;;;12.95;;
77287;SDS011;66345;42.694;23.346;2023-06-14T06:18:40;13.37;;;7.23;;
77287;SDS011;66345;42.694;23.346;2023-06-14T06:21:05;13.73;;;7.70;;
77287;SDS011;66345;42.694;23.346;2023-06-14T06:23:31;14.02;;;7.13;;
77287;SDS011;66345;42.694;23.346;2023-06-14T06:25:57;14.27;;;7.10;;
77287;SDS011;66345;42.694;23.346;2023-06-14T06:28:22;12.23;;;7.53;;
77287;SDS011;66345;42.694;23.346;2023-06-14T06:30:48;13.27;;;7.28;;
77287;SDS011;66345;42.694;23.346;2023-06-14T06:33:13;13.90;;;7.27;;
77287;SDS011;66345;42.694;23.346;2023-06-14T06:35:39;12.83;;;6.83;;
77287;SDS011;66345;42.694;23.346;2023-06-14T06:38:05;11.35;;;7.72;;
77287;SDS011;66345;42.694;23.346;2023-06-14T06:40:30;16.33;;;7.27;;
77287;SDS011;66345;42.694;23.346;2023-06-14T06:42:56;12.50;;;7.93;;
77287;SDS011;66345;42.694;23.346;2023-06-14T06:45:21;16.30;;;8.60;;
77287;SDS011;66345;42.694;23.346;2023-06-14T06:47:48;18.67;;;10.57;;
77287;SDS011;66345;42.694;23.346;2023-06-14T06:50:15;16.75;;;8.90;;
77287;SDS011;66345;42.694;23.346;2023-06-14T06:52:40;13.17;;;8.43;;
77287;SDS011;66345;42.694;23.346;2023-06-14T06:55:06;14.03;;;9.23;;
77287;SDS011;66345;42.694;23.346;2023-06-14T06:57:32;14.02;;;9.15;;
77287;SDS011;66345;42.694;23.346;2023-06-14T06:59:57;17.07;;;9.67;;
77287;SDS011;66345;42.694;23.346;2023-06-14T07:02:22;15.20;;;10.73;;
77287;SDS011;66345;42.694;23.346;2023-06-14T07:04:48;18.50;;;10.40;;
77287;SDS011;66345;42.694;23.346;2023-06-14T07:07:13;15.90;;;10.60;;
77287;SDS011;66345;42.694;23.346;2023-06-14T07:09:39;16.10;;;10.10;;
77287;SDS011;66345;42.694;23.346;2023-06-14T07:12:06;16.63;;;10.77;;
77287;SDS011;66345;42.694;23.346;2023-06-14T07:14:32;17.45;;;11.45;;
77287;SDS011;66345;42.694;23.346;2023-06-14T07:16:58;17.70;;;11.23;;
77287;SDS011;66345;42.694;23.346;2023-06-14T07:19:23;18.40;;;10.52;;
77287;SDS011;66345;42.694;23.346;2023-06-14T07:21:49;17.93;;;11.17;;
77287;SDS011;66345;42.694;23.346;2023-06-14T07:24:14;17.23;;;11.13;;
77287;SDS011;66345;42.694;23.346;2023-06-14T07:26:40;21.33;;;11.77;;
77287;SDS011;66345;42.694;23.346;2023-06-14T07:29:05;16.43;;;11.33;;
77287;SDS011;66345;42.694;23.346;2023-06-14T07:31:31;17.93;;;10.37;;
77287;SDS011;66345;42.694;23.346;2023-06-14T07:33:56;17.20;;;10.37;;
77287;SDS011;66345;42.694;23.346;2023-06-14T07:36:22;14.43;;;9.75;;
77287;SDS011;66345;42.694;23.346;2023-06-14T07:38:47;18.77;;;11.63;;
77287;SDS011;66345;42.694;23.346;2023-06-14T07:41:13;15.23;;;10.93;;
77287;SDS011;66345;42.694;23.346;2023-06-14T07:43:38;12.75;;;10.15;;
77287;SDS011;66345;42.694;23.346;2023-06-14T07:46:04;12.73;;;9.70;;
77287;SDS011;66345;42.694;23.346;2023-06-14T07:48:30;13.48;;;10.27;;
77287;SDS011;66345;42.694;23.346;2023-06-14T07:50:55;12.27;;;10.53;;
77287;SDS011;66345;42.694;23.346;2023-06-14T07:53:21;13.37;;;9.60;;
77287;SDS011;66345;42.694;23.346;2023-06-14T07:55:46;11.30;;;8.67;;
77287;SDS011;66345;42.694;23.346;2023-06-14T07:58:12;10.23;;;8.55;;
77287;SDS011;66345;42.694;23.346;2023-06-14T08:00:37;14.07;;;9.87;;
77287;SDS011;66345;42.694;23.346;2023-06-14T08:03:03;16.38;;;9.77;;
77287;SDS011;66345;42.694;23.346;2023-06-14T08:05:30;15.37;;;9.47;;
77287;SDS011;66345;42.694;23.346;2023-06-14T08:07:56;16.33;;;10.35;;
77287;SDS011;66345;42.694;23.346;2023-06-14T08:10:22;15.17;;;9.60;;
77287;SDS011;66345;42.694;23.346;2023-06-14T08:12:47;12.98;;;10.20;;
77287;SDS011;66345;42.694;23.346;2023-06-14T08:15:15;12.23;;;8.95;;
77287;SDS011;66345;42.694;23.346;2023-06-14T08:17:41;13.27;;;9.33;;
77287;SDS011;66345;42.694;23.346;2023-06-14T08:20:08;12.63;;;9.00;;
77287;SDS011;66345;42.694;23.346;2023-06-14T08:22:34;14.52;;;8.70;;
77287;SDS011;66345;42.694;23.346;2023-06-14T08:25:01;10.65;;;7.97;;
77287;SDS011;66345;42.694;23.346;2023-06-14T08:27:27;11.43;;;8.23;;
77287;SDS011;66345;42.694;23.346;2023-06-14T08:29:52;11.77;;;8.00;;
77287;SDS011;66345;42.694;23.346;2023-06-14T08:32:18;13.77;;;7.38;;
77287;SDS011;66345;42.694;23.346;2023-06-14T08:34:44;9.57;;;6.47;;
77287;SDS011;66345;42.694;23.346;2023-06-14T08:37:09;12.70;;;7.60;;
77287;SDS011;66345;42.694;23.346;2023-06-14T08:39:35;10.40;;;7.40;;
77287;SDS011;66345;42.694;23.346;2023-06-14T08:42:01;9.13;;;7.17;;
77287;SDS011;66345;42.694;23.346;2023-06-14T08:44:28;11.48;;;7.80;;
77287;SDS011;66345;42.694;23.346;2023-06-14T08:46:58;9.80;;;6.97;;
77287;SDS011;66345;42.694;23.346;2023-06-14T08:49:25;13.55;;;7.43;;
77287;SDS011;66345;42.694;23.346;2023-06-14T08:51:53;10.13;;;7.18;;
77287;SDS011;66345;42.694;23.346;2023-06-14T08:54:22;8.50;;;6.90;;
77287;SDS011;66345;42.694;23.346;2023-06-14T08:56:52;8.50;;;7.10;;
77287;SDS011;66345;42.694;23.346;2023-06-14T08:59:18;8.80;;;6.50;;
77287;SDS011;66345;42.694;23.346;2023-06-14T09:01:46;11.20;;;8.07;;
77287;SDS011;66345;42.694;23.346;2023-06-14T09:04:12;11.60;;;8.32;;
77287;SDS011;66345;42.694;23.346;2023-06-14T09:06:38;9.43;;;7.73;;
77287;SDS011;66345;42.694;23.346;2023-06-14T09:09:03;12.47;;;10.87;;
77287;SDS011;66345;42.694;23.346;2023-06-14T09:11:30;11.02;;;8.18;;
77287;SDS011;66345;42.694;23.346;2023-06-14T09:13:56;12.70;;;8.37;;
77287;SDS011;66345;42.694;23.346;2023-06-14T09:16:21;11.97;;;10.13;;
77287;SDS011;66345;42.694;23.346;2023-06-14T09:18:47;12.02;;;8.73;;
77287;SDS011;66345;42.694;23.346;2023-06-14T09:21:13;11.40;;;7.83;;
77287;SDS011;66345;42.694;23.346;2023-06-14T09:23:41;11.48;;;7.65;;
77287;SDS011;66345;42.694;23.346;2023-06-14T09:26:12;11.65;;;7.45;;
77287;SDS011;66345;42.694;23.346;2023-06-14T09:28:50;18.17;;;13.45;;
77287;SDS011;66345;42.694;23.346;2023-06-14T09:31:16;11.40;;;7.60;;
77287;SDS011;66345;42.694;23.346;2023-06-14T09:33:43;10.70;;;7.60;;
77287;SDS011;66345;42.694;23.346;2023-06-14T09:36:19;10.40;;;6.75;;
77287;SDS011;66345;42.694;23.346;2023-06-14T09:41:38;10.48;;;7.43;;
77287;SDS011;66345;42.694;23.346;2023-06-14T09:44:06;11.90;;;7.50;;
77287;SDS011;66345;42.694;23.346;2023-06-14T09:46:33;9.57;;;7.40;;
77287;SDS011;66345;42.694;23.346;2023-06-14T09:49:00;10.95;;;8.02;;
77287;SDS011;66345;42.694;23.346;2023-06-14T09:51:26;9.70;;;7.30;;
77287;SDS011;66345;42.694;23.346;2023-06-14T09:53:53;9.35;;;7.53;;
77287;SDS011;66345;42.694;23.346;2023-06-14T09:56:26;10.57;;;8.10;;
77287;SDS011;66345;42.694;23.346;2023-06-14T09:58:56;10.70;;;8.20;;
77287;SDS011;66345;42.694;23.346;2023-06-14T10:01:23;10.07;;;8.02;;
77287;SDS011;66345;42.694;23.346;2023-06-14T10:03:55;11.13;;;7.60;;
77287;SDS011;66345;42.694;23.346;2023-06-14T10:06:27;13.65;;;7.78;;
77287;SDS011;66345;42.694;23.346;2023-06-14T10:08:57;11.17;;;6.60;;
77287;SDS011;66345;42.694;23.346;2023-06-14T10:11:27;9.82;;;7.18;;
77287;SDS011;66345;42.694;23.346;2023-06-14T10:13:53;14.27;;;11.00;;
77287;SDS011;66345;42.694;23.346;2023-06-14T10:16:23;10.77;;;7.90;;
77287;SDS011;66345;42.694;23.346;2023-06-14T10:24:32;9.18;;;6.65;;
77287;SDS011;66345;42.694;23.346;2023-06-14T10:26:59;9.13;;;6.85;;
77287;SDS011;66345;42.694;23.346;2023-06-14T10:29:26;10.43;;;6.85;;
77287;SDS011;66345;42.694;23.346;2023-06-14T10:31:58;9.60;;;6.95;;
77287;SDS011;66345;42.694;23.346;2023-06-14T10:34:28;10.83;;;7.00;;
77287;SDS011;66345;42.694;23.346;2023-06-14T10:37:01;10.02;;;7.05;;
77287;SDS011;66345;42.694;23.346;2023-06-14T10:39:30;8.88;;;6.80;;
77287;SDS011;66345;42.694;23.346;2023-06-14T10:41:57;10.63;;;7.45;;
77287;SDS011;66345;42.694;23.346;2023-06-14T10:46:49;11.00;;;6.90;;
77287;SDS011;66345;42.694;23.346;2023-06-14T10:49:17;14.95;;;8.05;;
77287;SDS011;66345;42.694;23.346;2023-06-14T10:51:44;9.57;;;7.03;;
77287;SDS011;66345;42.694;23.346;2023-06-14T10:54:14;10.32;;;6.93;;
77287;SDS011;66345;42.694;23.346;2023-06-14T10:56:49;24.30;;;18.55;;
77287;SDS011;66345;42.694;23.346;2023-06-14T10:59:16;11.02;;;7.80;;
77287;SDS011;66345;42.694;23.346;2023-06-14T11:04:14;11.83;;;6.40;;
77287;SDS011;66345;42.694;23.346;2023-06-14T11:12:16;9.10;;;6.50;;
77287;SDS011;66345;42.694;23.346;2023-06-14T11:14:45;9.48;;;6.60;;
77287;SDS011;66345;42.694;23.346;2023-06-14T11:17:12;9.77;;;6.38;;
77287;SDS011;66345;42.694;23.346;2023-06-14T11:19:37;10.82;;;6.45;;
77287;SDS011;66345;42.694;23.346;2023-06-14T11:22:03;9.70;;;6.33;;
77287;SDS011;66345;42.694;23.346;2023-06-14T11:24:28;10.07;;;6.37;;
77287;SDS011;66345;42.694;23.346;2023-06-14T11:26:54;10.37;;;6.80;;
77287;SDS011;66345;42.694;23.346;2023-06-14T11:29:21;9.88;;;6.30;;
77287;SDS011;66345;42.694;23.346;2023-06-14T11:31:47;9.83;;;6.53;;
77287;SDS011;66345;42.694;23.346;2023-06-14T11:34:12;8.60;;;6.20;;
77287;SDS011;66345;42.694;23.346;2023-06-14T11:36:38;9.77;;;6.67;;
77287;SDS011;66345;42.694;23.346;2023-06-14T11:39:05;9.15;;;6.45;;
77287;SDS011;66345;42.694;23.346;2023-06-14T11:41:35;9.85;;;6.50;;
77287;SDS011;66345;42.694;23.346;2023-06-14T11:44:03;9.90;;;6.32;;
77287;SDS011;66345;42.694;23.346;2023-06-14T11:46:29;9.50;;;6.23;;
77287;SDS011;66345;42.694;23.346;2023-06-14T11:48:54;9.77;;;6.25;;
77287;SDS011;66345;42.694;23.346;2023-06-14T11:51:20;9.33;;;6.10;;
77287;SDS011;66345;42.694;23.346;2023-06-14T11:53:46;8.57;;;6.20;;
77287;SDS011;66345;42.694;23.346;2023-06-14T11:56:11;8.40;;;5.80;;
77287;SDS011;66345;42.694;23.346;2023-06-14T11:58:37;9.55;;;6.07;;
77287;SDS011;66345;42.694;23.346;2023-06-14T12:01:03;8.23;;;5.90;;
77287;SDS011;66345;42.694;23.346;2023-06-14T12:03:29;10.68;;;6.10;;
77287;SDS011;66345;42.694;23.346;2023-06-14T12:06:07;9.17;;;6.43;;
77287;SDS011;66345;42.694;23.346;2023-06-14T12:08:34;10.43;;;6.18;;
77287;SDS011;66345;42.694;23.346;2023-06-14T12:11:03;9.23;;;5.32;;
77287;SDS011;66345;42.694;23.346;2023-06-14T12:13:29;8.63;;;5.70;;
77287;SDS011;66345;42.694;23.346;2023-06-14T12:15:58;7.20;;;5.23;;
77287;SDS011;66345;42.694;23.346;2023-06-14T12:18:36;8.27;;;5.50;;
77287;SDS011;66345;42.694;23.346;2023-06-14T12:21:04;9.00;;;5.35;;
77287;SDS011;66345;42.694;23.346;2023-06-14T12:23:48;8.88;;;4.90;;
77287;SDS011;66345;42.694;23.346;2023-06-14T12:26:15;8.47;;;5.40;;
77287;SDS011;66345;42.694;23.346;2023-06-14T12:28:42;7.07;;;5.00;;
77287;SDS011;66345;42.694;23.346;2023-06-14T12:31:09;7.88;;;5.60;;
77287;SDS011;66345;42.694;23.346;2023-06-14T12:33:37;7.35;;;5.10;;
77287;SDS011;66345;42.694;23.346;2023-06-14T12:36:03;7.13;;;4.90;;
77287;SDS011;66345;42.694;23.346;2023-06-14T12:38:29;7.85;;;4.72;;
77287;SDS011;66345;42.694;23.346;2023-06-14T12:40:55;8.50;;;4.23;;
77287;SDS011;66345;42.694;23.346;2023-06-14T12:43:20;6.70;;;4.75;;
77287;SDS011;66345;42.694;23.346;2023-06-14T12:45:46;7.10;;;4.63;;
77287;SDS011;66345;42.694;23.346;2023-06-14T12:48:11;6.30;;;4.53;;
77287;SDS011;66345;42.694;23.346;2023-06-14T12:50:37;15.15;;;5.50;;
77287;SDS011;66345;42.694;23.346;2023-06-14T12:53:02;8.30;;;4.60;;
77287;SDS011;66345;42.694;23.346;2023-06-14T12:55:28;7.67;;;4.63;;
77287;SDS011;66345;42.694;23.346;2023-06-14T12:57:53;8.10;;;4.73;;
77287;SDS011;66345;42.694;23.346;2023-06-14T13:00:18;6.70;;;4.40;;
77287;SDS011;66345;42.694;23.346;2023-06-14T13:02:45;6.93;;;4.00;;
77287;SDS011;66345;42.694;23.346;2023-06-14T13:05:11;10.27;;;5.03;;
77287;SDS011;66345;42.694;23.346;2023-06-14T13:07:36;9.00;;;4.63;;
77287;SDS011;66345;42.694;23.346;2023-06-14T13:10:02;9.57;;;4.80;;
77287;SDS011;66345;42.694;23.346;2023-06-14T13:12:27;6.00;;;4.05;;
77287;SDS011;66345;42.694;23.346;2023-06-14T13:14:53;9.00;;;3.93;;
77287;SDS011;66345;42.694;23.346;2023-06-14T13:17:18;7.87;;;4.20;;
77287;SDS011;66345;42.694;23.346;2023-06-14T13:19:44;7.00;;;4.07;;
77287;SDS011;66345;42.694;23.346;2023-06-14T13:22:09;7.13;;;5.20;;
77287;SDS011;66345;42.694;23.346;2023-06-14T13:24:35;6.40;;;4.43;;
77287;SDS011;66345;42.694;23.346;2023-06-14T13:27:02;7.78;;;5.00;;
77287;SDS011;66345;42.694;23.346;2023-06-14T13:29:27;8.07;;;4.70;;
77287;SDS011;66345;42.694;23.346;2023-06-14T13:31:53;7.53;;;4.88;;
77287;SDS011;66345;42.694;23.346;2023-06-14T13:34:19;10.98;;;5.25;;
77287;SDS011;66345;42.694;23.346;2023-06-14T13:36:44;10.63;;;5.70;;
77287;SDS011;66345;42.694;23.346;2023-06-14T13:39:10;8.37;;;5.53;;
77287;SDS011;66345;42.694;23.346;2023-06-14T13:41:38;7.97;;;5.07;;
77287;SDS011;66345;42.694;23.346;2023-06-14T13:44:03;8.50;;;5.57;;
77287;SDS011;66345;42.694;23.346;2023-06-14T13:46:29;12.00;;;5.80;;
77287;SDS011;66345;42.694;23.346;2023-06-14T13:48:55;10.00;;;5.67;;
77287;SDS011;66345;42.694;23.346;2023-06-14T13:51:22;9.93;;;5.78;;
77287;SDS011;66345;42.694;23.346;2023-06-14T13:53:48;9.65;;;5.95;;
77287;SDS011;66345;42.694;23.346;2023-06-14T13:56:14;11.77;;;6.53;;
77287;SDS011;66345;42.694;23.346;2023-06-14T13:58:40;10.50;;;5.80;;
77287;SDS011;66345;42.694;23.346;2023-06-14T14:01:05;9.40;;;5.43;;
77287;SDS011;66345;42.694;23.346;2023-06-14T14:03:31;11.25;;;6.30;;
77287;SDS011;66345;42.694;23.346;2023-06-14T14:05:57;10.80;;;5.88;;
77287;SDS011;66345;42.694;23.346;2023-06-14T14:08:22;10.30;;;5.70;;
77287;SDS011;66345;42.694;23.346;2023-06-14T14:10:47;8.93;;;5.60;;
77287;SDS011;66345;42.694;23.346;2023-06-14T14:13:13;9.27;;;5.70;;
77287;SDS011;66345;42.694;23.346;2023-06-14T14:15:39;9.35;;;5.80;;
77287;SDS011;66345;42.694;23.346;2023-06-14T14:18:05;10.17;;;5.50;;
77287;SDS011;66345;42.694;23.346;2023-06-14T14:20:30;9.67;;;5.17;;
77287;SDS011;66345;42.694;23.346;2023-06-14T14:22:56;9.68;;;5.55;;
77287;SDS011;66345;42.694;23.346;2023-06-14T14:25:21;9.93;;;5.77;;
77287;SDS011;66345;42.694;23.346;2023-06-14T14:27:47;8.00;;;4.47;;
77287;SDS011;66345;42.694;23.346;2023-06-14T14:30:13;9.45;;;5.45;;
77287;SDS011;66345;42.694;23.346;2023-06-14T14:32:39;8.23;;;4.63;;
77287;SDS011;66345;42.694;23.346;2023-06-14T14:35:05;8.83;;;4.83;;
77287;SDS011;66345;42.694;23.346;2023-06-14T14:37:31;8.18;;;4.63;;
77287;SDS011;66345;42.694;23.346;2023-06-14T14:39:57;9.33;;;4.57;;
77287;SDS011;66345;42.694;23.346;2023-06-14T14:42:22;10.15;;;4.32;;
77287;SDS011;66345;42.694;23.346;2023-06-14T14:44:48;8.27;;;4.10;;
77287;SDS011;66345;42.694;23.346;2023-06-14T14:47:13;7.77;;;4.10;;
77287;SDS011;66345;42.694;23.346;2023-06-14T14:49:38;7.43;;;3.63;;